Time;durP1;ratioP1;P1;durP2;ratioP2;P2;SDS_P1;SDS_P2;PMS_P1;PMS_P2;Temp;Humidity;BMP_temperature;BMP_pressure;BME280_temperature;BME280_humidity;BME280_pressure;Samples;Min_cycle;Max_cycle;Signal;HPM_P1;HPM_P2
2022/10/06 00:02:26;;;;;;;8.15;4.70;;;;;;;10.73;73.13;101142.50;1708044;82;20999;-70
2022/10/06 00:04:53;;;;;;;7.72;4.80;;;;;;;10.73;73.15;101141.19;1715258;82;21039;-70
2022/10/06 00:07:20;;;;;;;9.25;4.72;;;;;;;10.76;73.18;101138.33;1720188;82;22202;-72
2022/10/06 00:09:47;;;;;;;8.50;4.75;;;;;;;10.77;73.16;101136.52;1711378;81;21052;-71
2022/10/06 00:12:14;;;;;;;8.93;4.75;;;;;;;10.76;73.18;101134.84;1707566;82;20956;-69
2022/10/06 00:14:41;;;;;;;7.97;4.47;;;;;;;10.74;73.20;101132.30;1710648;83;21515;-70
2022/10/06 00:17:07;;;;;;;10.70;5.22;;;;;;;10.75;73.23;101130.51;1711373;82;20952;-70
2022/10/06 00:19:34;;;;;;;7.72;4.50;;;;;;;10.74;73.28;101131.45;1708590;82;22000;-70
2022/10/06 00:22:00;;;;;;;7.78;4.72;;;;;;;10.72;73.33;101131.56;1710813;82;21027;-70
2022/10/06 00:24:27;;;;;;;9.08;4.90;;;;;;;10.70;73.37;101134.77;1717547;82;20960;-70
2022/10/06 00:26:53;;;;;;;7.40;4.67;;;;;;;10.69;73.44;101128.27;1708213;82;20963;-70
2022/10/06 00:29:21;;;;;;;7.17;4.75;;;;;;;10.69;73.49;101130.91;1707146;82;21075;-70
2022/10/06 00:31:47;;;;;;;9.00;5.20;;;;;;;10.69;73.51;101138.84;1709740;83;21916;-70
2022/10/06 00:34:14;;;;;;;8.75;4.62;;;;;;;10.68;73.55;101135.34;1708484;82;20952;-70
2022/10/06 00:36:41;;;;;;;10.90;4.87;;;;;;;10.66;73.58;101124.05;1667048;84;21022;-72
2022/10/06 00:39:09;;;;;;;10.32;4.65;;;;;;;10.66;73.58;101123.20;1679580;85;21015;-70
2022/10/06 00:41:35;;;;;;;8.03;4.62;;;;;;;10.67;73.65;101120.92;1681152;84;21386;-70
2022/10/06 00:44:01;;;;;;;9.03;4.22;;;;;;;10.68;73.64;101125.26;1720861;81;23653;-70
2022/10/06 00:46:38;;;;;;;10.90;5.00;;;;;;;10.69;73.64;101127.79;1722228;81;21337;-70
2022/10/06 00:49:29;;;;;;;7.10;4.30;;;;;;;10.71;73.61;101129.88;1726611;81;21534;-70
2022/10/06 00:52:10;;;;;;;8.05;4.30;;;;;;;10.72;73.58;101120.16;1719620;81;21370;-69
2022/10/06 00:54:36;;;;;;;7.55;4.00;;;;;;;10.74;73.54;101123.05;1715218;81;21007;-71
2022/10/06 00:57:04;;;;;;;7.08;3.95;;;;;;;10.75;73.47;101126.06;1720875;81;21895;-71
2022/10/06 00:59:30;;;;;;;7.53;4.00;;;;;;;10.77;73.40;101121.52;1719352;81;21114;-70
2022/10/06 01:02:21;;;;;;;7.25;4.20;;;;;;;10.79;73.32;101116.13;1683676;83;20944;-69
2022/10/06 01:04:54;;;;;;;6.55;3.90;;;;;;;10.81;73.22;101118.20;1685225;83;21119;-70
2022/10/06 01:07:23;;;;;;;9.43;4.15;;;;;;;10.81;73.16;101113.77;1696630;83;21019;-71
2022/10/06 01:09:51;;;;;;;8.28;4.10;;;;;;;10.82;73.10;101111.48;1675129;83;21795;-70
2022/10/06 01:12:17;;;;;;;5.83;3.90;;;;;;;10.84;73.02;101109.58;1728794;81;21003;-71
2022/10/06 01:14:44;;;;;;;7.37;4.25;;;;;;;10.83;72.96;101115.83;1690230;83;20955;-71
2022/10/06 01:17:19;;;;;;;8.58;4.20;;;;;;;10.82;72.93;101106.20;1720258;81;21089;-72
2022/10/06 01:19:52;;;;;;;9.40;3.98;;;;;;;10.81;72.90;101106.31;1673194;84;20967;-70
2022/10/06 01:22:36;;;;;;;8.10;4.20;;;;;;;10.81;72.92;101105.84;1695006;83;21884;-70
2022/10/06 01:25:06;;;;;;;5.15;4.12;;;;;;;10.79;72.93;101101.59;1712348;81;21588;-70
2022/10/06 01:27:35;;;;;;;6.42;3.95;;;;;;;10.78;72.97;101109.15;1687701;83;21003;-70
2022/10/06 01:30:03;;;;;;;6.67;4.03;;;;;;;10.76;73.03;101105.30;1669646;83;21505;-71
2022/10/06 01:32:36;;;;;;;8.05;4.25;;;;;;;10.76;73.03;101103.12;1671900;83;21517;-70
2022/10/06 01:35:05;;;;;;;8.10;3.67;;;;;;;10.75;73.05;101100.97;1724381;81;21847;-70
2022/10/06 01:37:32;;;;;;;7.05;3.95;;;;;;;10.72;73.11;101093.25;1663735;83;21055;-70
2022/10/06 01:39:59;;;;;;;7.15;3.83;;;;;;;10.73;73.12;101106.83;1720883;81;21019;-70
2022/10/06 01:42:26;;;;;;;6.30;4.00;;;;;;;10.72;73.11;101110.91;1663043;84;21139;-70
2022/10/06 01:44:52;;;;;;;8.15;3.83;;;;;;;10.72;73.12;101110.43;1721273;81;21028;-70
2022/10/06 01:47:19;;;;;;;5.85;3.77;;;;;;;10.71;73.16;101109.19;1699377;83;22011;-70
2022/10/06 01:49:46;;;;;;;7.90;3.85;;;;;;;10.70;73.18;101104.86;1720589;81;21045;-70
2022/10/06 01:52:14;;;;;;;5.47;3.55;;;;;;;10.68;73.23;101098.84;1664601;83;21477;-72
2022/10/06 01:54:40;;;;;;;7.92;3.70;;;;;;;10.67;73.29;101109.04;1721149;81;21475;-70
2022/10/06 01:57:09;;;;;;;5.70;3.52;;;;;;;10.65;73.33;101099.91;1700390;83;21431;-71
2022/10/06 01:59:37;;;;;;;7.92;4.47;;;;;;;10.66;73.37;101099.42;1729582;81;22180;-70
2022/10/06 02:02:04;;;;;;;7.92;4.10;;;;;;;10.64;73.45;101099.53;1716788;82;20951;-70
2022/10/06 02:04:31;;;;;;;8.90;4.10;;;;;;;10.63;73.52;101102.28;1683920;83;21042;-70
2022/10/06 02:06:59;;;;;;;6.70;3.85;;;;;;;10.61;73.57;101099.72;1682712;83;20955;-70
2022/10/06 02:09:28;;;;;;;8.20;3.95;;;;;;;10.60;73.63;101097.55;1655372;85;21376;-70
2022/10/06 02:11:55;;;;;;;6.20;3.70;;;;;;;10.61;73.71;101094.44;1699276;82;21952;-70
2022/10/06 02:14:23;;;;;;;6.87;3.65;;;;;;;10.60;73.71;101099.36;1683345;85;21030;-70
2022/10/06 02:16:51;;;;;;;7.95;3.58;;;;;;;10.60;73.77;101099.36;1685130;83;21064;-70
2022/10/06 02:19:17;;;;;;;5.42;4.00;;;;;;;10.60;73.79;101100.67;1683621;83;21045;-70
2022/10/06 02:21:43;;;;;;;9.15;3.67;;;;;;;10.60;73.79;101096.71;1695674;83;21058;-71
2022/10/06 02:24:10;;;;;;;5.30;3.65;;;;;;;10.62;73.84;101099.28;1699035;83;22031;-71
2022/10/06 02:26:38;;;;;;;8.43;3.72;;;;;;;10.60;73.82;101087.47;1723055;81;21031;-71
2022/10/06 02:29:05;;;;;;;6.72;3.80;;;;;;;10.61;73.87;101091.80;1694700;83;21468;-69
2022/10/06 02:31:32;;;;;;;7.33;3.75;;;;;;;10.61;73.87;101089.16;1693086;83;21019;-70
2022/10/06 02:33:58;;;;;;;8.55;3.72;;;;;;;10.62;73.85;101092.67;1703239;83;21010;-72
2022/10/06 02:36:26;;;;;;;5.72;3.75;;;;;;;10.64;73.87;101086.80;1697574;83;21738;-71
2022/10/06 02:38:56;;;;;;;7.45;4.03;;;;;;;10.63;73.86;101085.11;1667547;84;20963;-70
2022/10/06 02:41:24;;;;;;;6.42;3.72;;;;;;;10.61;73.86;101078.59;1726658;81;21498;-70
2022/10/06 02:43:52;;;;;;;5.67;3.80;;;;;;;10.62;73.89;101078.98;1736113;81;21008;-70
2022/10/06 02:46:21;;;;;;;10.60;3.62;;;;;;;10.60;73.88;101079.06;1686636;83;21503;-70
2022/10/06 02:48:50;;;;;;;7.30;4.00;;;;;;;10.60;73.92;101081.70;1720917;82;21921;-70
2022/10/06 02:51:18;;;;;;;7.05;3.70;;;;;;;10.60;73.95;101081.70;1716907;82;21134;-70
2022/10/06 02:53:47;;;;;;;5.83;3.67;;;;;;;10.59;73.98;101081.34;1714269;82;20982;-71
2022/10/06 02:56:17;;;;;;;9.38;4.25;;;;;;;10.59;74.00;101080.02;1718192;82;21506;-70
2022/10/06 02:58:43;;;;;;;7.87;3.65;;;;;;;10.57;74.03;101079.28;1686428;83;21508;-70
2022/10/06 03:01:18;;;;;;;8.13;4.00;;;;;;;10.56;74.09;101080.71;1680920;84;21961;-70
2022/10/06 03:03:46;;;;;;;5.42;3.87;;;;;;;10.55;74.12;101081.67;1701394;83;21091;-70
2022/10/06 03:06:22;;;;;;;7.03;3.90;;;;;;;10.55;74.17;101084.31;1685531;83;21008;-71
2022/10/06 03:09:00;;;;;;;7.60;3.40;;;;;;;10.54;74.24;101078.66;1716268;82;21415;-70
2022/10/06 03:11:31;;;;;;;5.45;3.47;;;;;;;10.53;74.31;101080.45;1698580;83;21518;-70
2022/10/06 03:13:58;;;;;;;7.60;3.70;;;;;;;10.53;74.35;101080.93;1705329;83;22416;-76
2022/10/06 03:16:36;;;;;;;6.17;4.00;;;;;;;10.54;74.37;101077.34;1725854;82;20965;-71
2022/10/06 03:19:03;;;;;;;5.50;3.87;;;;;;;10.55;74.38;101079.02;1724261;82;21142;-70
2022/10/06 03:21:34;;;;;;;5.30;3.80;;;;;;;10.58;74.38;101076.16;1721262;82;21039;-70
2022/10/06 03:24:01;;;;;;;6.80;4.25;;;;;;;10.59;74.34;101077.85;1720777;82;21433;-69
2022/10/06 03:26:31;;;;;;;8.78;4.08;;;;;;;10.61;74.31;101081.23;1717267;82;22441;-71
2022/10/06 03:28:59;;;;;;;5.87;3.62;;;;;;;10.60;74.32;101082.18;1727221;82;20976;-70
2022/10/06 03:31:25;;;;;;;6.55;3.72;;;;;;;10.59;74.30;101074.73;1717147;82;21440;-69
2022/10/06 03:33:56;;;;;;;6.97;3.62;;;;;;;10.60;74.32;101079.06;1696842;83;20954;-71
2022/10/06 03:36:26;;;;;;;5.65;3.85;;;;;;;10.62;74.29;101078.14;1687156;83;21492;-70
2022/10/06 03:38:53;;;;;;;6.15;4.05;;;;;;;10.62;74.29;101076.83;1686989;83;22003;-70
2022/10/06 03:41:25;;;;;;;5.58;3.80;;;;;;;10.61;74.32;101085.19;1696118;83;20998;-69
2022/10/06 03:43:53;;;;;;;8.10;4.17;;;;;;;10.61;74.33;101082.55;1674559;83;21112;-69
2022/10/06 03:46:22;;;;;;;6.20;4.28;;;;;;;10.61;74.33;101083.88;1671708;84;21020;-69
2022/10/06 03:48:50;;;;;;;6.10;4.15;;;;;;;10.61;74.33;101078.59;1673895;84;21134;-69
2022/10/06 03:51:23;;;;;;;10.32;4.28;;;;;;;10.61;74.31;101073.30;1676636;84;21806;-69
2022/10/06 03:53:52;;;;;;;8.95;4.30;;;;;;;10.60;74.33;101079.06;1685750;82;21462;-70
2022/10/06 03:56:31;;;;;;;8.23;4.17;;;;;;;10.60;74.32;101083.03;1710409;82;21407;-70
2022/10/06 03:59:04;;;;;;;7.22;3.95;;;;;;;10.60;74.29;101076.42;1705333;82;21480;-70
2022/10/06 04:01:41;;;;;;;8.13;4.47;;;;;;;10.59;74.29;101080.02;1705602;82;21023;-70
2022/10/06 04:04:11;;;;;;;6.55;3.90;;;;;;;10.59;74.31;101079.17;1716505;82;21858;-70
2022/10/06 04:06:42;;;;;;;7.92;4.35;;;;;;;10.59;74.32;101085.78;1704982;82;21128;-71
2022/10/06 04:09:15;;;;;;;6.80;4.33;;;;;;;10.59;74.27;101083.14;1720843;82;21012;-71
2022/10/06 04:11:51;;;;;;;11.70;4.95;;;;;;;10.62;74.23;101079.47;1704729;82;21051;-71
2022/10/06 04:14:47;;;;;;;7.10;4.10;;;;;;;10.61;74.23;101086.52;1705296;82;20992;-71
2022/10/06 04:17:25;;;;;;;8.28;4.28;;;;;;;10.62;74.24;101089.55;1704599;82;21107;-71
2022/10/06 04:19:52;;;;;;;8.40;4.35;;;;;;;10.64;74.19;101096.05;1707288;82;21055;-72
2022/10/06 04:22:22;;;;;;;8.28;4.40;;;;;;;10.64;74.17;101098.22;1724149;80;21602;-72
2022/10/06 04:25:13;;;;;;;8.28;4.25;;;;;;;10.64;74.14;101095.57;1705143;82;21062;-71
2022/10/06 04:27:50;;;;;;;10.90;4.80;;;;;;;10.66;74.10;101083.57;1706110;81;21333;-70
2022/10/06 04:30:19;;;;;;;8.45;4.80;;;;;;;10.67;74.07;101081.30;1705397;82;21841;-71
2022/10/06 04:32:47;;;;;;;12.75;4.67;;;;;;;10.68;74.03;101081.19;1707973;82;21476;-73
2022/10/06 04:35:22;;;;;;;6.08;4.05;;;;;;;10.69;74.00;101084.20;1702900;82;21095;-72
2022/10/06 04:37:53;;;;;;;8.03;4.28;;;;;;;10.72;73.98;101086.66;1690609;83;21682;-71
2022/10/06 04:40:22;;;;;;;9.98;5.25;;;;;;;10.74;73.93;101080.78;1670616;84;21094;-71
2022/10/06 04:42:49;;;;;;;9.05;4.17;;;;;;;10.75;73.87;101081.63;1644902;84;21877;-70
2022/10/06 04:45:16;;;;;;;8.30;4.50;;;;;;;10.77;73.86;101086.32;1704806;81;21050;-70
2022/10/06 04:47:47;;;;;;;9.03;4.42;;;;;;;10.80;73.77;101093.55;1720440;81;22128;-73
2022/10/06 04:50:15;;;;;;;9.80;4.40;;;;;;;10.83;73.64;101096.00;1695874;81;22011;-73
2022/10/06 04:52:46;;;;;;;8.85;4.78;;;;;;;10.85;73.59;101083.52;1719324;81;21093;-72
2022/10/06 04:55:14;;;;;;;11.25;4.97;;;;;;;10.89;73.53;101088.95;1671583;84;22182;-71
2022/10/06 04:57:40;;;;;;;9.30;4.85;;;;;;;10.93;73.38;101089.60;1725584;81;21046;-75
2022/10/06 05:00:22;;;;;;;12.65;4.83;;;;;;;10.96;73.21;101093.83;1691706;83;21039;-74
2022/10/06 05:02:54;;;;;;;11.17;4.87;;;;;;;11.00;73.09;101090.00;1727389;81;21533;-72
2022/10/06 05:05:21;;;;;;;9.55;4.87;;;;;;;11.03;72.85;101093.77;1690837;83;21097;-73
2022/10/06 05:07:49;;;;;;;10.15;4.53;;;;;;;11.05;72.70;101098.47;1720818;81;21959;-71
2022/10/06 05:10:16;;;;;;;8.83;4.80;;;;;;;11.07;72.49;101100.52;1689521;83;21014;-75
2022/10/06 05:12:43;;;;;;;11.30;4.80;;;;;;;11.07;72.32;101097.41;1726929;81;21075;-73
2022/10/06 05:15:11;;;;;;;10.65;4.37;;;;;;;11.10;72.20;101099.02;1690894;83;21059;-72
2022/10/06 05:17:37;;;;;;;7.28;4.28;;;;;;;11.13;72.05;101096.98;1724285;81;21089;-71
2022/10/06 05:20:06;;;;;;;9.18;4.30;;;;;;;11.16;71.90;101090.63;1691687;83;22362;-71
2022/10/06 05:22:33;;;;;;;7.40;4.62;;;;;;;11.20;71.74;101097.89;1723385;81;21576;-69
2022/10/06 05:25:02;;;;;;;8.63;4.72;;;;;;;11.23;71.54;101093.22;1719693;81;20915;-69
2022/10/06 05:27:29;;;;;;;8.88;4.85;;;;;;;11.26;71.27;101091.67;1694285;83;21106;-70
2022/10/06 05:29:56;;;;;;;9.03;4.67;;;;;;;11.28;71.15;101092.39;1720443;83;21095;-70
2022/10/06 05:32:22;;;;;;;7.33;4.75;;;;;;;11.31;71.04;101099.29;1691763;83;21948;-69
2022/10/06 05:34:49;;;;;;;7.95;4.78;;;;;;;11.33;70.98;101102.66;1721654;81;21051;-69
2022/10/06 05:37:16;;;;;;;9.18;4.65;;;;;;;11.36;70.90;101107.25;1721879;81;21004;-70
2022/10/06 05:39:43;;;;;;;9.30;4.40;;;;;;;11.38;70.73;101105.81;1660885;84;21559;-70
2022/10/06 05:42:10;;;;;;;11.97;4.62;;;;;;;11.40;70.59;101106.58;1721890;81;21560;-69
2022/10/06 05:44:39;;;;;;;10.28;4.22;;;;;;;11.42;70.45;101110.80;1689255;83;22073;-69
2022/10/06 05:47:09;;;;;;;6.72;4.28;;;;;;;11.46;70.31;101110.09;1723632;83;20952;-69
2022/10/06 05:49:37;;;;;;;10.90;4.08;;;;;;;11.46;70.12;101115.37;1722282;81;21000;-69
2022/10/06 05:52:04;;;;;;;6.62;4.12;;;;;;;11.48;70.04;101114.78;1712831;81;21020;-69
2022/10/06 05:54:33;;;;;;;9.23;4.50;;;;;;;11.49;69.88;101111.21;1658341;83;21030;-71
2022/10/06 05:57:01;;;;;;;9.23;4.62;;;;;;;11.50;69.79;101119.99;1684829;83;21888;-69
2022/10/06 05:59:29;;;;;;;6.28;4.08;;;;;;;11.51;69.65;101112.42;1670887;85;21086;-69
2022/10/06 06:01:58;;;;;;;8.18;4.00;;;;;;;11.52;69.50;101114.11;1695560;83;21097;-68
2022/10/06 06:04:29;;;;;;;5.37;3.98;;;;;;;11.52;69.35;101110.14;1717037;81;21026;-72
2022/10/06 06:06:57;;;;;;;9.78;4.28;;;;;;;11.56;69.35;101112.92;1687582;83;21445;-69
2022/10/06 06:09:27;;;;;;;8.68;3.85;;;;;;;11.61;69.00;101114.77;1686105;83;21891;-69
2022/10/06 06:11:58;;;;;;;9.78;4.12;;;;;;;11.70;68.95;101110.98;1720120;81;21074;-69
2022/10/06 06:17:13;;;;;;;7.70;4.28;;;;;;;11.90;68.77;101112.69;1728032;81;21019;-70
2022/10/06 06:19:41;;;;;;;8.00;3.70;;;;;;;12.05;68.55;101115.52;1693642;83;21446;-69
2022/10/06 06:22:09;;;;;;;6.45;3.67;;;;;;;12.20;68.16;101117.52;1720946;82;23057;-69
2022/10/06 06:24:37;;;;;;;7.00;3.60;;;;;;;12.36;67.66;101111.45;1675472;83;21067;-69
2022/10/06 06:27:04;;;;;;;5.37;3.42;;;;;;;12.57;67.41;101105.85;1719894;81;20955;-69
2022/10/06 06:29:31;;;;;;;7.87;3.40;;;;;;;12.79;67.05;101109.02;1691722;84;21092;-69
2022/10/06 06:31:58;;;;;;;8.70;3.52;;;;;;;12.99;66.68;101107.48;1691493;84;20942;-69
2022/10/06 06:34:26;;;;;;;5.22;3.42;;;;;;;13.15;65.91;101109.30;1691227;83;21903;-69
2022/10/06 06:36:54;;;;;;;6.45;3.12;;;;;;;13.31;65.24;101108.11;1691434;83;21464;-69
2022/10/06 06:39:21;;;;;;;7.80;3.08;;;;;;;13.46;64.54;101109.56;1692575;83;21451;-69
2022/10/06 06:41:49;;;;;;;5.08;2.65;;;;;;;13.63;64.10;101111.71;1691350;83;20942;-69
2022/10/06 06:44:22;;;;;;;6.50;3.00;;;;;;;13.74;63.35;101109.03;1694581;83;20999;-69
2022/10/06 06:46:55;;;;;;;5.45;2.95;;;;;;;13.82;62.34;101107.09;1691375;83;21848;-70
2022/10/06 06:49:23;;;;;;;6.25;2.70;;;;;;;13.88;61.72;101108.38;1658736;85;21086;-70
2022/10/06 06:51:53;;;;;;;9.45;3.40;;;;;;;13.92;61.46;101113.82;1667074;84;21447;-70
2022/10/06 06:54:22;;;;;;;7.72;3.12;;;;;;;13.97;61.30;101104.97;1672099;83;21605;-70
2022/10/06 06:56:50;;;;;;;9.85;3.60;;;;;;;14.03;61.54;101110.64;1683591;83;21028;-70
2022/10/06 06:59:19;;;;;;;8.65;3.50;;;;;;;14.14;61.54;101112.41;1669193;84;22575;-69
2022/10/06 07:01:48;;;;;;;5.87;2.92;;;;;;;14.25;60.91;101115.02;1685256;83;21489;-70
2022/10/06 07:04:19;;;;;;;5.90;2.62;;;;;;;14.37;60.73;101114.95;1681820;83;21036;-70
2022/10/06 07:06:57;;;;;;;6.75;3.15;;;;;;;14.45;59.75;101116.52;1642252;84;21111;-70
2022/10/06 07:09:27;;;;;;;7.62;2.92;;;;;;;14.51;59.39;101113.36;1671617;83;21058;-72
2022/10/06 07:11:56;;;;;;;4.97;2.50;;;;;;;14.57;59.33;101117.69;1640026;84;21588;-69
2022/10/06 07:14:24;;;;;;;8.98;3.00;;;;;;;14.65;59.03;101116.17;1697682;83;21019;-69
2022/10/06 07:25:06;;;;;;;7.58;2.90;;;;;;;14.88;57.41;101119.06;1643923;85;21914;-69
2022/10/06 07:27:49;;;;;;;5.97;3.10;;;;;;;14.89;57.62;101118.09;1674608;83;20990;-70
2022/10/06 07:30:22;;;;;;;6.87;3.15;;;;;;;14.95;57.88;101118.03;1682024;83;20955;-69
2022/10/06 07:32:50;;;;;;;;;;;;;;;15.02;57.96;101116.53;1659336;85;21048;-69
2022/10/06 07:35:19;;;;;;;6.97;3.05;;;;;;;15.08;57.61;101112.03;1659394;84;20162;-69
2022/10/06 07:37:52;;;;;;;6.60;2.90;;;;;;;15.11;57.37;101118.41;1690833;83;21925;-70
2022/10/06 07:40:25;;;;;;;7.12;2.87;;;;;;;15.16;57.70;101114.38;1682764;83;21071;-70
2022/10/06 07:43:01;;;;;;;7.62;2.87;;;;;;;15.24;57.46;101116.34;1683202;83;21008;-70
2022/10/06 07:45:40;;;;;;;6.47;2.62;;;;;;;15.32;57.28;101117.86;1661575;83;21030;-71
2022/10/06 07:48:18;;;;;;;5.58;2.50;;;;;;;15.41;56.48;101117.55;1670981;84;21091;-70
2022/10/06 07:50:50;;;;;;;5.65;2.70;;;;;;;15.48;56.25;101122.69;1680795;84;21823;-70
2022/10/06 07:53:18;;;;;;;5.72;2.70;;;;;;;15.53;55.63;101115.13;1677036;84;20873;-70
2022/10/06 07:55:48;;;;;;;4.78;2.40;;;;;;;15.58;55.45;101111.58;1664462;84;21363;-70
2022/10/06 07:58:19;;;;;;;8.33;3.10;;;;;;;15.64;55.69;101107.08;1677077;84;21090;-70
2022/10/06 08:00:47;;;;;;;6.67;2.58;;;;;;;15.73;55.60;101096.94;1693436;83;36462;-71
2022/10/06 08:03:16;;;;;;;4.55;2.60;;;;;;;15.82;55.47;101095.24;1686155;83;22652;-71
2022/10/06 08:05:45;;;;;;;7.85;2.80;;;;;;;15.92;54.91;101093.92;1706002;82;21014;-71
2022/10/06 08:08:13;;;;;;;7.45;2.90;;;;;;;16.03;55.00;101087.16;1707845;82;21000;-71
2022/10/06 08:10:43;;;;;;;5.78;2.65;;;;;;;16.20;55.11;101080.27;1693443;83;21327;-70
2022/10/06 08:13:09;;;;;;;6.05;2.92;;;;;;;16.38;54.53;101082.56;1700296;82;20948;-79
2022/10/06 08:15:36;;;;;;;5.83;2.83;;;;;;;16.50;53.67;101089.91;1706596;83;21796;-73
2022/10/06 08:18:03;;;;;;;5.47;2.90;;;;;;;16.59;53.44;101088.56;1732562;81;20984;-72
2022/10/06 08:20:30;;;;;;;6.53;2.70;;;;;;;16.70;53.97;101086.78;1715498;82;21417;-74
2022/10/06 08:22:58;;;;;;;7.10;2.72;;;;;;;16.84;52.89;101080.48;1739507;81;20960;-70
2022/10/06 08:25:24;;;;;;;4.90;2.30;;;;;;;16.99;52.39;101087.53;1708072;83;21033;-70
2022/10/06 08:27:53;;;;;;;7.95;2.70;;;;;;;17.07;51.65;101080.95;1711507;82;21822;-70
2022/10/06 08:30:25;;;;;;;7.58;2.50;;;;;;;17.16;51.60;101082.73;1690344;84;21392;-70
2022/10/06 08:32:48;;;;;;;5.80;2.40;;;;;;;17.26;51.28;101073.84;1687016;83;21020;-71
2022/10/06 08:35:15;;;;;;;4.97;2.35;;;;;;;17.34;51.52;101073.45;1740774;81;20959;-71
2022/10/06 08:37:42;;;;;;;5.30;2.30;;;;;;;17.43;50.62;101070.39;1740631;82;20995;-71
2022/10/06 08:40:12;;;;;;;3.65;2.00;;;;;;;17.45;49.76;101074.58;1712918;82;21943;-70
2022/10/06 08:42:43;;;;;;;4.25;2.27;;;;;;;17.49;49.33;101072.47;1651659;86;20883;-70
2022/10/06 08:45:23;;;;;;;3.98;2.25;;;;;;;17.54;48.81;101054.65;1711336;82;21580;-71
2022/10/06 08:48:17;;;;;;;4.95;2.15;;;;;;;17.56;48.55;101056.66;1683604;83;21003;-69
2022/10/06 08:51:00;;;;;;;2.92;2.12;;;;;;;17.58;48.61;101063.56;1675017;85;21460;-70
2022/10/06 08:53:53;;;;;;;5.67;2.27;;;;;;;17.62;48.80;101058.75;1674217;83;22187;-71
2022/10/06 08:56:22;;;;;;;;;;;;;;;17.66;48.56;101057.44;1683419;84;21277;-70
2022/10/06 08:58:56;;;;;;;5.00;2.02;;;;;;;17.74;48.08;101049.55;1688008;83;20408;-70
2022/10/06 09:01:26;;;;;;;4.12;2.02;;;;;;;17.86;48.06;101046.18;1704126;82;21481;-71
2022/10/06 09:03:56;;;;;;;3.72;1.90;;;;;;;18.03;46.01;101045.31;1662695;86;21477;-71
2022/10/06 09:06:50;;;;;;;4.03;2.00;;;;;;;18.15;45.81;101056.63;1689437;83;21846;-73
2022/10/06 09:09:47;;;;;;;3.83;1.95;;;;;;;18.26;44.75;101053.21;1695976;83;20964;-73
2022/10/06 09:12:38;;;;;;;4.62;2.20;;;;;;;18.39;44.72;101062.16;1693216;83;21030;-71
2022/10/06 09:15:32;;;;;;;3.47;1.90;;;;;;;18.52;45.70;101056.39;1717744;82;21090;-71
2022/10/06 09:18:43;;;;;;;3.87;1.90;;;;;;;18.75;45.51;101054.92;1722402;81;21029;-73
2022/10/06 09:21:16;;;;;;;3.42;1.95;;;;;;;18.97;44.75;101052.69;1683396;85;21927;-74
2022/10/06 09:23:47;;;;;;;;;;;;;;;19.11;44.41;101058.80;1713452;84;21562;-73
2022/10/06 09:26:27;;;;;;;5.62;2.20;;;;;;;19.16;43.80;101055.96;1708027;82;20166;-73
2022/10/06 09:28:53;;;;;;;3.67;1.70;;;;;;;19.16;43.99;101063.99;1693669;83;21565;-73
2022/10/06 09:31:40;;;;;;;4.28;1.85;;;;;;;19.13;43.06;101064.83;1710874;83;21281;-72
2022/10/06 09:34:40;;;;;;;3.25;1.90;;;;;;;19.10;44.13;101053.91;1695227;82;22536;-71
2022/10/06 09:37:09;;;;;;;4.62;2.00;;;;;;;19.19;44.39;101061.48;1704189;82;20940;-73
2022/10/06 09:39:42;;;;;;;5.17;1.70;;;;;;;19.31;44.76;101052.19;1690353;85;20979;-74
2022/10/06 09:42:34;;;;;;;3.22;1.80;;;;;;;19.49;44.24;101049.87;1701450;83;21346;-73
2022/10/06 09:45:04;;;;;;;3.45;1.80;;;;;;;19.69;43.78;101048.64;1708095;83;20968;-74
2022/10/06 09:47:40;;;;;;;3.30;1.70;;;;;;;19.89;42.69;101042.47;1692245;83;21982;-73
2022/10/06 09:50:26;;;;;;;2.92;1.70;;;;;;;20.06;42.91;101045.47;1658552;85;20970;-73
2022/10/06 09:53:05;;;;;;;3.27;1.80;;;;;;;20.21;41.33;101034.92;1663324;85;21448;-72
2022/10/06 09:55:40;;;;;;;5.47;1.50;;;;;;;20.31;40.86;101042.30;1656253;85;21079;-72
2022/10/06 09:58:31;;;;;;;2.47;1.40;;;;;;;20.42;40.32;101039.27;1663269;85;20969;-72
2022/10/06 10:01:03;;;;;;;2.00;1.40;;;;;;;20.46;41.20;101035.28;1683314;84;21081;-72
2022/10/06 10:03:59;;;;;;;3.00;1.47;;;;;;;20.56;40.43;101039.95;1660291;86;21071;-73
2022/10/06 10:06:28;;;;;;;2.60;1.60;;;;;;;20.65;39.98;101041.26;1681743;85;20975;-71
2022/10/06 10:09:24;;;;;;;4.37;1.80;;;;;;;20.69;40.09;101030.53;1684797;84;21063;-71
2022/10/06 10:12:31;;;;;;;3.40;1.70;;;;;;;20.82;40.96;101028.13;1652451;85;21071;-71
2022/10/06 10:15:06;;;;;;;6.92;1.60;;;;;;;20.99;40.01;101040.50;1688789;83;21804;-71
2022/10/06 10:17:50;;;;;;;4.72;1.57;;;;;;;21.12;38.67;101031.88;1650324;85;21047;-72
2022/10/06 10:20:40;;;;;;;2.15;1.35;;;;;;;21.21;38.56;101025.97;1684608;83;20966;-74
2022/10/06 10:23:31;;;;;;;3.10;1.30;;;;;;;21.36;38.05;101025.09;1656613;84;20967;-73
2022/10/06 10:26:34;;;;;;;1.95;1.52;;;;;;;21.49;38.01;101028.54;1657177;85;20969;-72
2022/10/06 10:29:34;;;;;;;3.95;1.50;;;;;;;21.51;38.41;101021.13;1634524;85;22059;-73
2022/10/06 10:32:26;;;;;;;4.62;1.57;;;;;;;21.51;38.08;101019.78;1655045;85;21027;-75
2022/10/06 10:35:17;;;;;;;3.15;2.00;;;;;;;21.55;38.01;101010.88;1643443;85;21048;-73
2022/10/06 10:38:01;;;;;;;3.67;1.75;;;;;;;21.67;38.65;101012.14;1668120;84;21516;-72
2022/10/06 10:40:33;;;;;;;5.37;1.85;;;;;;;21.87;38.57;101012.50;1664116;86;20979;-72
2022/10/06 10:43:30;;;;;;;3.55;1.87;;;;;;;21.94;38.19;101014.29;1675244;85;21896;-71
2022/10/06 10:46:23;;;;;;;3.17;1.80;;;;;;;21.95;38.26;101006.55;1662399;85;21027;-72
2022/10/06 10:49:01;;;;;;;4.20;1.90;;;;;;;21.92;37.68;101004.73;1712186;83;20973;-74
2022/10/06 10:51:37;;;;;;;3.10;1.52;;;;;;;21.89;38.02;100999.70;1661163;85;20966;-73
2022/10/06 10:54:12;;;;;;;4.10;1.80;;;;;;;22.03;37.55;100997.58;1676278;85;21006;-72
2022/10/06 10:56:38;;;;;;;4.10;1.87;;;;;;;22.25;37.73;101006.14;1703173;81;22541;-72
2022/10/06 10:59:29;;;;;;;3.50;1.80;;;;;;;22.47;37.34;101007.09;1716459;83;20996;-72
2022/10/06 11:02:01;;;;;;;2.85;1.75;;;;;;;22.63;36.22;100994.50;1710118;83;20964;-74
2022/10/06 11:04:27;;;;;;;3.12;1.72;;;;;;;22.72;35.38;101004.16;1691389;84;20963;-73
2022/10/06 11:07:03;;;;;;;2.67;1.52;;;;;;;22.67;34.70;101008.73;1709750;84;21069;-73
2022/10/06 11:09:42;;;;;;;2.72;1.80;;;;;;;22.59;34.52;101007.50;1709439;84;21952;-73
2022/10/06 11:12:35;;;;;;;4.03;1.70;;;;;;;22.63;35.82;100993.98;1730554;83;21027;-73
2022/10/06 11:15:22;;;;;;;3.02;1.70;;;;;;;22.77;35.12;100995.83;1695713;83;21008;-73
2022/10/06 11:17:49;;;;;;;5.12;1.67;;;;;;;22.77;34.52;100997.69;1697329;84;21550;-73
2022/10/06 11:20:36;;;;;;;3.20;1.50;;;;;;;22.72;33.92;100990.17;1730262;83;20991;-73
2022/10/06 11:23:18;;;;;;;2.85;1.70;;;;;;;22.59;34.49;100988.66;1700023;84;21831;-71
2022/10/06 11:25:54;;;;;;;4.17;1.80;;;;;;;22.50;34.12;100986.56;1730290;81;20995;-71
2022/10/06 11:28:45;;;;;;;3.02;1.80;;;;;;;22.48;34.59;100989.92;1699070;84;21641;-72
2022/10/06 11:31:23;;;;;;;3.75;1.60;;;;;;;22.52;34.48;100991.75;1731290;81;21461;-72
2022/10/06 11:33:54;;;;;;;2.95;1.65;;;;;;;22.63;34.42;100984.56;1699821;84;21441;-72
2022/10/06 11:36:38;;;;;;;6.08;1.60;;;;;;;22.76;34.13;100981.20;1703952;83;21915;-72
2022/10/06 11:39:25;;;;;;;2.45;1.75;;;;;;;22.91;33.67;100974.51;1699517;84;21496;-73
2022/10/06 11:42:03;;;;;;;5.00;1.90;;;;;;;23.08;33.68;100971.93;1730854;82;21094;-72
2022/10/06 11:44:40;;;;;;;3.52;1.67;;;;;;;23.28;33.88;100974.34;1699828;84;20963;-72
2022/10/06 11:47:18;;;;;;;4.58;1.57;;;;;;;23.39;33.61;100967.09;1691917;83;21047;-72
2022/10/06 11:49:50;;;;;;;4.65;1.85;;;;;;;23.56;32.99;100958.77;1655863;85;22610;-72
2022/10/06 11:52:23;;;;;;;6.00;2.10;;;;;;;23.72;33.37;100959.88;1660885;86;20976;-72
2022/10/06 11:55:08;;;;;;;3.12;1.80;;;;;;;23.85;32.83;100965.92;1685512;85;21115;-72
2022/10/06 11:57:34;;;;;;;2.98;1.75;;;;;;;23.92;32.66;100963.58;1660595;86;21079;-72
2022/10/06 12:00:18;;;;;;;4.65;1.67;;;;;;;24.10;32.10;100967.66;1670222;85;21035;-72
2022/10/06 12:02:46;;;;;;;6.70;1.80;;;;;;;24.08;31.58;100969.73;1660830;86;21833;-72